sensor_id;sensor_type;location;lat;lon;timestamp;P1;durP1;ratioP1;P2;durP2;ratioP2
60368;SDS011;46208;44.634;10.492;2022-12-18T00:00:07;6.22;;;2.78;;
60368;SDS011;46208;44.634;10.492;2022-12-18T00:03:17;2.08;;;1.85;;
60368;SDS011;46208;44.634;10.492;2022-12-18T00:06:20;2.17;;;1.80;;
60368;SDS011;46208;44.634;10.492;2022-12-18T00:09:24;1.50;;;1.25;;
60368;SDS011;46208;44.634;10.492;2022-12-18T00:12:27;1.50;;;1.40;;
60368;SDS011;46208;44.634;10.492;2022-12-18T00:15:32;2.78;;;1.63;;
60368;SDS011;46208;44.634;10.492;2022-12-18T00:18:36;1.90;;;1.02;;
60368;SDS011;46208;44.634;10.492;2022-12-18T00:21:40;1.40;;;1.35;;
60368;SDS011;46208;44.634;10.492;2022-12-18T00:24:43;1.02;;;1.00;;
60368;SDS011;46208;44.634;10.492;2022-12-18T00:27:47;4.88;;;2.40;;
60368;SDS011;46208;44.634;10.492;2022-12-18T00:30:51;1.25;;;0.80;;
60368;SDS011;46208;44.634;10.492;2022-12-18T00:34:02;1.13;;;1.10;;
60368;SDS011;46208;44.634;10.492;2022-12-18T00:37:05;0.93;;;0.88;;
60368;SDS011;46208;44.634;10.492;2022-12-18T00:40:08;1.30;;;1.20;;
60368;SDS011;46208;44.634;10.492;2022-12-18T00:43:13;0.85;;;0.85;;
60368;SDS011;46208;44.634;10.492;2022-12-18T00:46:17;0.73;;;0.73;;
60368;SDS011;46208;44.634;10.492;2022-12-18T00:49:20;1.80;;;1.70;;
60368;SDS011;46208;44.634;10.492;2022-12-18T00:52:23;1.85;;;1.27;;
60368;SDS011;46208;44.634;10.492;2022-12-18T00:55:26;1.60;;;1.15;;
60368;SDS011;46208;44.634;10.492;2022-12-18T00:58:30;3.72;;;1.25;;
60368;SDS011;46208;44.634;10.492;2022-12-18T01:01:33;4.35;;;1.83;;
60368;SDS011;46208;44.634;10.492;2022-12-18T01:04:36;1.50;;;1.08;;
60368;SDS011;46208;44.634;10.492;2022-12-18T01:07:40;0.77;;;0.77;;
60368;SDS011;46208;44.634;10.492;2022-12-18T01:10:43;1.50;;;1.40;;
60368;SDS011;46208;44.634;10.492;2022-12-18T01:13:46;2.45;;;1.10;;
60368;SDS011;46208;44.634;10.492;2022-12-18T01:16:50;1.52;;;1.30;;
60368;SDS011;46208;44.634;10.492;2022-12-18T01:19:53;1.45;;;1.35;;
60368;SDS011;46208;44.634;10.492;2022-12-18T01:22:56;3.40;;;2.15;;
60368;SDS011;46208;44.634;10.492;2022-12-18T01:26:03;2.38;;;2.15;;
60368;SDS011;46208;44.634;10.492;2022-12-18T01:29:07;5.10;;;3.22;;
60368;SDS011;46208;44.634;10.492;2022-12-18T01:32:09;2.03;;;1.35;;
60368;SDS011;46208;44.634;10.492;2022-12-18T01:35:13;3.60;;;1.52;;
60368;SDS011;46208;44.634;10.492;2022-12-18T01:38:17;1.08;;;0.80;;
60368;SDS011;46208;44.634;10.492;2022-12-18T01:41:25;2.50;;;1.05;;
60368;SDS011;46208;44.634;10.492;2022-12-18T01:47:52;3.22;;;1.85;;
60368;SDS011;46208;44.634;10.492;2022-12-18T01:50:56;4.70;;;3.38;;
60368;SDS011;46208;44.634;10.492;2022-12-18T01:54:00;5.53;;;1.92;;
60368;SDS011;46208;44.634;10.492;2022-12-18T01:57:03;3.88;;;2.30;;
60368;SDS011;46208;44.634;10.492;2022-12-18T02:00:09;4.18;;;3.35;;
60368;SDS011;46208;44.634;10.492;2022-12-18T02:03:18;2.60;;;2.35;;
60368;SDS011;46208;44.634;10.492;2022-12-18T02:06:33;6.22;;;2.72;;
60368;SDS011;46208;44.634;10.492;2022-12-18T02:09:56;3.35;;;3.00;;
60368;SDS011;46208;44.634;10.492;2022-12-18T02:13:06;2.95;;;2.72;;
60368;SDS011;46208;44.634;10.492;2022-12-18T02:29:07;5.68;;;4.43;;
60368;SDS011;46208;44.634;10.492;2022-12-18T02:32:14;4.72;;;4.22;;
60368;SDS011;46208;44.634;10.492;2022-12-18T02:35:20;5.38;;;3.55;;
60368;SDS011;46208;44.634;10.492;2022-12-18T02:38:28;4.70;;;3.15;;
60368;SDS011;46208;44.634;10.492;2022-12-18T02:41:35;7.53;;;5.20;;
60368;SDS011;46208;44.634;10.492;2022-12-18T02:44:44;6.22;;;4.07;;
60368;SDS011;46208;44.634;10.492;2022-12-18T02:47:48;8.13;;;3.75;;
60368;SDS011;46208;44.634;10.492;2022-12-18T02:50:57;5.63;;;3.10;;
60368;SDS011;46208;44.634;10.492;2022-12-18T02:54:05;4.90;;;4.15;;
60368;SDS011;46208;44.634;10.492;2022-12-18T02:57:18;6.82;;;3.70;;
60368;SDS011;46208;44.634;10.492;2022-12-18T03:00:34;5.55;;;3.75;;
60368;SDS011;46208;44.634;10.492;2022-12-18T03:03:40;3.92;;;3.25;;
60368;SDS011;46208;44.634;10.492;2022-12-18T03:06:46;4.18;;;3.72;;
60368;SDS011;46208;44.634;10.492;2022-12-18T03:09:51;4.05;;;2.70;;
60368;SDS011;46208;44.634;10.492;2022-12-18T03:13:00;4.78;;;3.90;;
60368;SDS011;46208;44.634;10.492;2022-12-18T03:16:05;5.53;;;3.40;;
60368;SDS011;46208;44.634;10.492;2022-12-18T03:19:11;7.40;;;4.03;;
60368;SDS011;46208;44.634;10.492;2022-12-18T03:22:18;6.00;;;3.08;;
60368;SDS011;46208;44.634;10.492;2022-12-18T03:25:25;2.75;;;2.33;;
60368;SDS011;46208;44.634;10.492;2022-12-18T03:28:31;3.63;;;3.25;;
60368;SDS011;46208;44.634;10.492;2022-12-18T03:31:41;4.18;;;3.83;;
60368;SDS011;46208;44.634;10.492;2022-12-18T03:34:46;7.07;;;3.17;;
60368;SDS011;46208;44.634;10.492;2022-12-18T03:37:52;5.10;;;4.63;;
60368;SDS011;46208;44.634;10.492;2022-12-18T03:41:00;3.85;;;2.90;;
60368;SDS011;46208;44.634;10.492;2022-12-18T03:44:12;2.83;;;2.40;;
60368;SDS011;46208;44.634;10.492;2022-12-18T03:57:06;7.82;;;4.30;;
60368;SDS011;46208;44.634;10.492;2022-12-18T04:00:15;6.90;;;3.55;;
60368;SDS011;46208;44.634;10.492;2022-12-18T04:03:31;7.43;;;3.22;;
60368;SDS011;46208;44.634;10.492;2022-12-18T04:06:35;4.10;;;3.70;;
60368;SDS011;46208;44.634;10.492;2022-12-18T04:09:39;6.25;;;3.17;;
60368;SDS011;46208;44.634;10.492;2022-12-18T04:12:44;4.28;;;3.10;;
60368;SDS011;46208;44.634;10.492;2022-12-18T04:15:49;3.47;;;2.28;;
60368;SDS011;46208;44.634;10.492;2022-12-18T04:18:54;4.57;;;2.05;;
60368;SDS011;46208;44.634;10.492;2022-12-18T04:22:00;1.83;;;1.67;;
60368;SDS011;46208;44.634;10.492;2022-12-18T04:25:05;2.35;;;1.80;;
60368;SDS011;46208;44.634;10.492;2022-12-18T04:28:15;2.00;;;1.90;;
60368;SDS011;46208;44.634;10.492;2022-12-18T04:31:19;1.23;;;1.13;;
60368;SDS011;46208;44.634;10.492;2022-12-18T04:34:24;2.30;;;2.05;;
60368;SDS011;46208;44.634;10.492;2022-12-18T04:37:29;2.47;;;1.90;;
60368;SDS011;46208;44.634;10.492;2022-12-18T04:40:33;2.35;;;1.98;;
60368;SDS011;46208;44.634;10.492;2022-12-18T04:43:37;2.28;;;1.90;;
60368;SDS011;46208;44.634;10.492;2022-12-18T04:46:41;2.50;;;2.00;;
60368;SDS011;46208;44.634;10.492;2022-12-18T04:49:45;5.32;;;1.65;;
60368;SDS011;46208;44.634;10.492;2022-12-18T04:52:48;1.48;;;1.38;;
60368;SDS011;46208;44.634;10.492;2022-12-18T04:55:51;2.45;;;2.15;;
60368;SDS011;46208;44.634;10.492;2022-12-18T04:58:54;1.23;;;1.13;;
60368;SDS011;46208;44.634;10.492;2022-12-18T05:01:57;0.95;;;0.95;;
60368;SDS011;46208;44.634;10.492;2022-12-18T05:05:00;3.05;;;1.85;;
60368;SDS011;46208;44.634;10.492;2022-12-18T05:08:03;3.13;;;1.80;;
60368;SDS011;46208;44.634;10.492;2022-12-18T05:11:14;2.25;;;2.08;;
60368;SDS011;46208;44.634;10.492;2022-12-18T05:14:20;1.65;;;1.10;;
60368;SDS011;46208;44.634;10.492;2022-12-18T05:17:24;1.50;;;1.40;;
60368;SDS011;46208;44.634;10.492;2022-12-18T05:20:27;2.13;;;1.50;;
60368;SDS011;46208;44.634;10.492;2022-12-18T05:23:30;3.85;;;2.10;;
60368;SDS011;46208;44.634;10.492;2022-12-18T05:26:37;0.80;;;0.80;;
60368;SDS011;46208;44.634;10.492;2022-12-18T05:29:41;2.53;;;2.33;;
60368;SDS011;46208;44.634;10.492;2022-12-18T05:32:44;3.45;;;2.95;;
60368;SDS011;46208;44.634;10.492;2022-12-18T05:35:51;2.35;;;1.50;;
60368;SDS011;46208;44.634;10.492;2022-12-18T05:38:55;1.45;;;1.20;;
60368;SDS011;46208;44.634;10.492;2022-12-18T05:41:58;1.10;;;1.02;;
60368;SDS011;46208;44.634;10.492;2022-12-18T05:45:01;1.42;;;1.38;;
60368;SDS011;46208;44.634;10.492;2022-12-18T05:48:04;2.70;;;1.40;;
60368;SDS011;46208;44.634;10.492;2022-12-18T05:51:09;1.45;;;1.35;;
60368;SDS011;46208;44.634;10.492;2022-12-18T05:54:12;3.88;;;2.58;;
60368;SDS011;46208;44.634;10.492;2022-12-18T05:57:15;3.42;;;1.60;;
60368;SDS011;46208;44.634;10.492;2022-12-18T06:00:18;3.95;;;2.28;;
60368;SDS011;46208;44.634;10.492;2022-12-18T06:03:21;3.75;;;2.80;;
60368;SDS011;46208;44.634;10.492;2022-12-18T06:06:26;2.47;;;1.63;;
60368;SDS011;46208;44.634;10.492;2022-12-18T06:09:30;2.10;;;1.58;;
60368;SDS011;46208;44.634;10.492;2022-12-18T06:12:33;1.08;;;0.98;;
60368;SDS011;46208;44.634;10.492;2022-12-18T06:15:36;1.10;;;1.00;;
60368;SDS011;46208;44.634;10.492;2022-12-18T06:18:40;2.35;;;1.75;;
60368;SDS011;46208;44.634;10.492;2022-12-18T06:21:43;3.10;;;1.00;;
60368;SDS011;46208;44.634;10.492;2022-12-18T06:24:47;3.17;;;1.75;;
60368;SDS011;46208;44.634;10.492;2022-12-18T06:27:50;1.23;;;1.13;;
60368;SDS011;46208;44.634;10.492;2022-12-18T06:30:54;1.60;;;1.50;;
60368;SDS011;46208;44.634;10.492;2022-12-18T06:33:57;2.38;;;2.28;;
60368;SDS011;46208;44.634;10.492;2022-12-18T06:37:00;5.13;;;1.35;;
60368;SDS011;46208;44.634;10.492;2022-12-18T06:40:04;2.13;;;1.98;;
60368;SDS011;46208;44.634;10.492;2022-12-18T06:43:08;1.83;;;1.73;;
60368;SDS011;46208;44.634;10.492;2022-12-18T06:46:11;2.25;;;1.23;;
60368;SDS011;46208;44.634;10.492;2022-12-18T06:49:14;1.90;;;1.67;;
60368;SDS011;46208;44.634;10.492;2022-12-18T06:52:18;2.47;;;2.28;;
60368;SDS011;46208;44.634;10.492;2022-12-18T06:55:21;0.90;;;0.88;;
60368;SDS011;46208;44.634;10.492;2022-12-18T06:58:25;2.63;;;2.42;;
60368;SDS011;46208;44.634;10.492;2022-12-18T07:01:29;3.13;;;2.03;;
60368;SDS011;46208;44.634;10.492;2022-12-18T07:04:32;1.80;;;1.70;;
60368;SDS011;46208;44.634;10.492;2022-12-18T07:07:36;4.18;;;1.70;;
60368;SDS011;46208;44.634;10.492;2022-12-18T07:10:42;2.90;;;1.75;;
60368;SDS011;46208;44.634;10.492;2022-12-18T07:13:46;3.22;;;2.92;;
60368;SDS011;46208;44.634;10.492;2022-12-18T07:16:50;1.73;;;1.63;;
60368;SDS011;46208;44.634;10.492;2022-12-18T07:19:53;2.38;;;2.10;;
60368;SDS011;46208;44.634;10.492;2022-12-18T07:22:56;2.75;;;1.63;;
60368;SDS011;46208;44.634;10.492;2022-12-18T07:26:06;2.38;;;2.03;;
60368;SDS011;46208;44.634;10.492;2022-12-18T07:29:10;2.83;;;2.00;;
60368;SDS011;46208;44.634;10.492;2022-12-18T07:32:13;2.60;;;2.33;;
60368;SDS011;46208;44.634;10.492;2022-12-18T07:35:16;4.57;;;3.65;;
60368;SDS011;46208;44.634;10.492;2022-12-18T07:38:20;2.35;;;2.15;;
60368;SDS011;46208;44.634;10.492;2022-12-18T07:41:23;4.97;;;3.40;;
60368;SDS011;46208;44.634;10.492;2022-12-18T07:44:27;3.55;;;3.05;;
60368;SDS011;46208;44.634;10.492;2022-12-18T07:47:30;5.20;;;2.72;;
60368;SDS011;46208;44.634;10.492;2022-12-18T07:50:33;2.65;;;2.30;;
60368;SDS011;46208;44.634;10.492;2022-12-18T07:53:36;3.85;;;2.80;;
60368;SDS011;46208;44.634;10.492;2022-12-18T07:56:39;3.55;;;2.78;;
60368;SDS011;46208;44.634;10.492;2022-12-18T07:59:43;4.57;;;3.55;;
60368;SDS011;46208;44.634;10.492;2022-12-18T08:02:46;3.58;;;2.33;;
60368;SDS011;46208;44.634;10.492;2022-12-18T08:05:49;2.80;;;2.17;;
60368;SDS011;46208;44.634;10.492;2022-12-18T08:08:53;3.50;;;3.17;;
60368;SDS011;46208;44.634;10.492;2022-12-18T08:11:57;2.72;;;2.38;;
60368;SDS011;46208;44.634;10.492;2022-12-18T08:15:00;2.75;;;2.55;;
60368;SDS011;46208;44.634;10.492;2022-12-18T08:18:03;3.03;;;2.58;;
60368;SDS011;46208;44.634;10.492;2022-12-18T08:21:10;5.95;;;2.72;;
60368;SDS011;46208;44.634;10.492;2022-12-18T08:24:13;3.67;;;2.83;;
60368;SDS011;46208;44.634;10.492;2022-12-18T08:27:16;3.00;;;2.50;;
60368;SDS011;46208;44.634;10.492;2022-12-18T08:30:20;4.90;;;3.40;;
60368;SDS011;46208;44.634;10.492;2022-12-18T08:33:24;4.25;;;2.90;;
60368;SDS011;46208;44.634;10.492;2022-12-18T08:36:27;5.15;;;2.83;;
60368;SDS011;46208;44.634;10.492;2022-12-18T08:39:30;3.58;;;1.90;;
60368;SDS011;46208;44.634;10.492;2022-12-18T08:42:33;4.50;;;2.83;;
60368;SDS011;46208;44.634;10.492;2022-12-18T08:45:55;2.45;;;1.63;;
60368;SDS011;46208;44.634;10.492;2022-12-18T08:48:59;3.30;;;2.92;;
60368;SDS011;46208;44.634;10.492;2022-12-18T08:52:02;2.85;;;2.55;;
60368;SDS011;46208;44.634;10.492;2022-12-18T08:55:06;3.47;;;3.03;;
60368;SDS011;46208;44.634;10.492;2022-12-18T08:58:09;3.45;;;3.15;;
60368;SDS011;46208;44.634;10.492;2022-12-18T09:01:12;2.80;;;2.40;;
60368;SDS011;46208;44.634;10.492;2022-12-18T09:04:16;3.58;;;2.60;;
60368;SDS011;46208;44.634;10.492;2022-12-18T09:07:19;2.58;;;1.85;;
60368;SDS011;46208;44.634;10.492;2022-12-18T09:10:22;3.05;;;2.35;;
60368;SDS011;46208;44.634;10.492;2022-12-18T09:13:25;3.20;;;2.63;;
60368;SDS011;46208;44.634;10.492;2022-12-18T09:16:29;3.80;;;2.13;;
60368;SDS011;46208;44.634;10.492;2022-12-18T09:19:34;4.13;;;2.70;;
60368;SDS011;46208;44.634;10.492;2022-12-18T09:22:37;3.25;;;2.42;;
60368;SDS011;46208;44.634;10.492;2022-12-18T09:25:40;1.83;;;1.70;;
60368;SDS011;46208;44.634;10.492;2022-12-18T09:28:43;2.42;;;1.88;;
60368;SDS011;46208;44.634;10.492;2022-12-18T09:31:47;2.90;;;2.33;;
60368;SDS011;46208;44.634;10.492;2022-12-18T09:34:50;5.53;;;3.40;;
60368;SDS011;46208;44.634;10.492;2022-12-18T09:37:53;3.60;;;2.40;;
60368;SDS011;46208;44.634;10.492;2022-12-18T09:41:04;3.50;;;3.25;;
60368;SDS011;46208;44.634;10.492;2022-12-18T09:47:56;4.13;;;3.17;;
60368;SDS011;46208;44.634;10.492;2022-12-18T09:50:53;2.33;;;1.90;;
60368;SDS011;46208;44.634;10.492;2022-12-18T09:54:03;3.58;;;2.90;;
60368;SDS011;46208;44.634;10.492;2022-12-18T09:57:13;6.50;;;3.28;;
60368;SDS011;46208;44.634;10.492;2022-12-18T10:00:18;8.57;;;1.83;;
60368;SDS011;46208;44.634;10.492;2022-12-18T10:03:22;4.95;;;3.72;;
60368;SDS011;46208;44.634;10.492;2022-12-18T10:12:56;3.40;;;3.10;;
60368;SDS011;46208;44.634;10.492;2022-12-18T10:16:03;3.22;;;2.15;;
60368;SDS011;46208;44.634;10.492;2022-12-18T10:19:23;4.00;;;2.90;;
60368;SDS011;46208;44.634;10.492;2022-12-18T10:25:53;4.45;;;4.05;;
60368;SDS011;46208;44.634;10.492;2022-12-18T10:28:58;3.72;;;2.40;;
60368;SDS011;46208;44.634;10.492;2022-12-18T10:32:02;4.82;;;3.30;;
60368;SDS011;46208;44.634;10.492;2022-12-18T10:35:07;5.20;;;3.45;;
60368;SDS011;46208;44.634;10.492;2022-12-18T10:44:22;2.00;;;1.83;;
60368;SDS011;46208;44.634;10.492;2022-12-18T10:47:26;6.22;;;3.75;;
60368;SDS011;46208;44.634;10.492;2022-12-18T10:50:33;3.35;;;1.50;;
60368;SDS011;46208;44.634;10.492;2022-12-18T10:53:37;6.83;;;3.87;;
60368;SDS011;46208;44.634;10.492;2022-12-18T10:56:41;4.05;;;3.63;;
60368;SDS011;46208;44.634;10.492;2022-12-18T10:59:54;7.53;;;2.45;;
60368;SDS011;46208;44.634;10.492;2022-12-18T11:02:58;3.15;;;2.95;;
60368;SDS011;46208;44.634;10.492;2022-12-18T11:12:44;5.88;;;3.08;;
60368;SDS011;46208;44.634;10.492;2022-12-18T11:15:47;5.20;;;4.22;;
60368;SDS011;46208;44.634;10.492;2022-12-18T11:18:51;2.05;;;1.67;;
60368;SDS011;46208;44.634;10.492;2022-12-18T11:21:55;6.85;;;3.78;;
60368;SDS011;46208;44.634;10.492;2022-12-18T11:28:03;3.83;;;3.42;;
60368;SDS011;46208;44.634;10.492;2022-12-18T11:31:23;3.75;;;3.45;;
60368;SDS011;46208;44.634;10.492;2022-12-18T11:34:30;8.02;;;3.85;;
60368;SDS011;46208;44.634;10.492;2022-12-18T11:37:35;3.95;;;3.30;;
60368;SDS011;46208;44.634;10.492;2022-12-18T11:40:40;8.05;;;7.00;;
60368;SDS011;46208;44.634;10.492;2022-12-18T11:43:50;8.18;;;3.67;;
60368;SDS011;46208;44.634;10.492;2022-12-18T11:46:56;6.43;;;4.32;;
60368;SDS011;46208;44.634;10.492;2022-12-18T11:50:05;6.25;;;3.75;;
60368;SDS011;46208;44.634;10.492;2022-12-18T11:53:13;8.75;;;5.03;;
60368;SDS011;46208;44.634;10.492;2022-12-18T11:56:26;7.63;;;4.38;;
60368;SDS011;46208;44.634;10.492;2022-12-18T11:59:54;5.28;;;3.70;;
60368;SDS011;46208;44.634;10.492;2022-12-18T12:06:04;6.95;;;3.50;;
60368;SDS011;46208;44.634;10.492;2022-12-18T12:09:47;8.57;;;3.95;;
60368;SDS011;46208;44.634;10.492;2022-12-18T12:16:09;4.97;;;3.28;;
60368;SDS011;46208;44.634;10.492;2022-12-18T12:25:41;8.23;;;3.95;;
60368;SDS011;46208;44.634;10.492;2022-12-18T12:31:56;8.63;;;6.68;;
60368;SDS011;46208;44.634;10.492;2022-12-18T12:41:26;9.13;;;5.70;;
60368;SDS011;46208;44.634;10.492;2022-12-18T12:44:55;6.90;;;5.85;;
60368;SDS011;46208;44.634;10.492;2022-12-18T12:48:01;12.40;;;5.90;;
60368;SDS011;46208;44.634;10.492;2022-12-18T12:51:24;13.60;;;5.55;;
60368;SDS011;46208;44.634;10.492;2022-12-18T12:54:28;12.27;;;5.88;;
60368;SDS011;46208;44.634;10.492;2022-12-18T12:57:40;7.07;;;5.18;;
60368;SDS011;46208;44.634;10.492;2022-12-18T13:07:40;7.47;;;3.83;;
60368;SDS011;46208;44.634;10.492;2022-12-18T13:10:44;4.80;;;3.92;;
60368;SDS011;46208;44.634;10.492;2022-12-18T13:13:49;6.72;;;3.95;;
60368;SDS011;46208;44.634;10.492;2022-12-18T13:17:09;10.20;;;3.65;;
60368;SDS011;46208;44.634;10.492;2022-12-18T13:20:15;3.40;;;3.10;;
60368;SDS011;46208;44.634;10.492;2022-12-18T13:29:46;5.57;;;3.78;;
60368;SDS011;46208;44.634;10.492;2022-12-18T13:32:57;7.53;;;3.10;;
60368;SDS011;46208;44.634;10.492;2022-12-18T13:36:14;4.65;;;3.70;;
60368;SDS011;46208;44.634;10.492;2022-12-18T13:42:34;7.95;;;3.60;;
60368;SDS011;46208;44.634;10.492;2022-12-18T13:49:03;4.45;;;3.20;;
60368;SDS011;46208;44.634;10.492;2022-12-18T13:52:18;5.85;;;4.07;;
60368;SDS011;46208;44.634;10.492;2022-12-18T13:55:22;7.93;;;5.35;;
60368;SDS011;46208;44.634;10.492;2022-12-18T13:58:26;10.10;;;4.90;;
60368;SDS011;46208;44.634;10.492;2022-12-18T14:01:29;6.65;;;4.20;;
60368;SDS011;46208;44.634;10.492;2022-12-18T14:04:33;11.45;;;6.28;;
60368;SDS011;46208;44.634;10.492;2022-12-18T14:07:39;5.85;;;4.07;;
60368;SDS011;46208;44.634;10.492;2022-12-18T14:10:43;9.18;;;6.30;;
60368;SDS011;46208;44.634;10.492;2022-12-18T14:13:47;6.50;;;4.50;;
60368;SDS011;46208;44.634;10.492;2022-12-18T14:16:51;4.10;;;3.80;;
60368;SDS011;46208;44.634;10.492;2022-12-18T14:19:55;12.50;;;5.35;;
60368;SDS011;46208;44.634;10.492;2022-12-18T14:22:58;4.45;;;3.35;;
60368;SDS011;46208;44.634;10.492;2022-12-18T14:29:29;4.00;;;3.45;;
60368;SDS011;46208;44.634;10.492;2022-12-18T14:32:32;4.28;;;3.30;;
60368;SDS011;46208;44.634;10.492;2022-12-18T14:35:37;5.25;;;4.88;;
60368;SDS011;46208;44.634;10.492;2022-12-18T14:38:41;4.38;;;3.30;;
60368;SDS011;46208;44.634;10.492;2022-12-18T14:41:44;3.17;;;2.88;;
60368;SDS011;46208;44.634;10.492;2022-12-18T14:44:48;4.90;;;4.00;;
60368;SDS011;46208;44.634;10.492;2022-12-18T14:47:51;4.88;;;3.70;;
60368;SDS011;46208;44.634;10.492;2022-12-18T14:51:16;4.28;;;3.47;;
60368;SDS011;46208;44.634;10.492;2022-12-18T14:54:19;7.38;;;3.53;;
60368;SDS011;46208;44.634;10.492;2022-12-18T14:57:23;8.32;;;5.35;;
60368;SDS011;46208;44.634;10.492;2022-12-18T15:00:27;3.05;;;2.17;;
60368;SDS011;46208;44.634;10.492;2022-12-18T15:03:31;3.50;;;3.13;;
60368;SDS011;46208;44.634;10.492;2022-12-18T15:06:36;6.18;;;3.95;;
60368;SDS011;46208;44.634;10.492;2022-12-18T15:09:41;6.78;;;2.22;;
60368;SDS011;46208;44.634;10.492;2022-12-18T15:12:46;6.82;;;3.97;;
60368;SDS011;46208;44.634;10.492;2022-12-18T15:15:50;4.95;;;3.15;;
60368;SDS011;46208;44.634;10.492;2022-12-18T15:18:53;4.97;;;3.25;;
60368;SDS011;46208;44.634;10.492;2022-12-18T15:21:57;5.63;;;3.17;;
60368;SDS011;46208;44.634;10.492;2022-12-18T15:25:00;7.35;;;4.70;;
60368;SDS011;46208;44.634;10.492;2022-12-18T15:28:04;5.80;;;4.93;;
60368;SDS011;46208;44.634;10.492;2022-12-18T15:34:24;3.22;;;2.67;;
60368;SDS011;46208;44.634;10.492;2022-12-18T15:37:29;3.53;;;2.58;;
60368;SDS011;46208;44.634;10.492;2022-12-18T15:40:32;5.22;;;4.45;;
60368;SDS011;46208;44.634;10.492;2022-12-18T15:43:37;5.05;;;4.28;;
60368;SDS011;46208;44.634;10.492;2022-12-18T15:46:40;15.90;;;6.35;;
60368;SDS011;46208;44.634;10.492;2022-12-18T15:49:44;9.48;;;6.85;;
60368;SDS011;46208;44.634;10.492;2022-12-18T15:52:48;3.78;;;3.22;;
60368;SDS011;46208;44.634;10.492;2022-12-18T15:55:52;3.60;;;3.00;;
60368;SDS011;46208;44.634;10.492;2022-12-18T15:59:15;4.35;;;3.22;;
60368;SDS011;46208;44.634;10.492;2022-12-18T16:02:20;4.63;;;3.85;;
60368;SDS011;46208;44.634;10.492;2022-12-18T16:05:25;1.73;;;1.58;;
60368;SDS011;46208;44.634;10.492;2022-12-18T16:08:29;6.03;;;2.10;;
60368;SDS011;46208;44.634;10.492;2022-12-18T16:11:33;2.08;;;1.77;;
60368;SDS011;46208;44.634;10.492;2022-12-18T16:14:43;3.90;;;2.92;;
60368;SDS011;46208;44.634;10.492;2022-12-18T16:17:47;4.00;;;3.58;;
60368;SDS011;46208;44.634;10.492;2022-12-18T16:20:51;8.27;;;4.55;;
60368;SDS011;46208;44.634;10.492;2022-12-18T16:23:54;3.47;;;2.53;;
60368;SDS011;46208;44.634;10.492;2022-12-18T16:26:58;4.03;;;3.30;;
60368;SDS011;46208;44.634;10.492;2022-12-18T16:30:02;4.50;;;3.63;;
60368;SDS011;46208;44.634;10.492;2022-12-18T16:33:06;5.05;;;2.33;;
60368;SDS011;46208;44.634;10.492;2022-12-18T16:36:09;4.35;;;3.53;;
60368;SDS011;46208;44.634;10.492;2022-12-18T16:39:12;4.78;;;2.58;;
60368;SDS011;46208;44.634;10.492;2022-12-18T16:42:16;3.30;;;2.88;;
60368;SDS011;46208;44.634;10.492;2022-12-18T16:45:22;5.50;;;4.47;;
60368;SDS011;46208;44.634;10.492;2022-12-18T16:48:26;9.82;;;4.43;;
60368;SDS011;46208;44.634;10.492;2022-12-18T16:51:29;2.28;;;2.03;;
60368;SDS011;46208;44.634;10.492;2022-12-18T16:54:32;12.75;;;5.07;;
60368;SDS011;46208;44.634;10.492;2022-12-18T16:57:37;9.70;;;5.00;;
60368;SDS011;46208;44.634;10.492;2022-12-18T17:00:40;3.13;;;2.40;;
60368;SDS011;46208;44.634;10.492;2022-12-18T17:03:43;5.00;;;4.53;;
60368;SDS011;46208;44.634;10.492;2022-12-18T17:06:47;9.30;;;4.07;;
60368;SDS011;46208;44.634;10.492;2022-12-18T17:09:55;20.42;;;9.23;;
60368;SDS011;46208;44.634;10.492;2022-12-18T17:12:59;10.88;;;9.55;;
60368;SDS011;46208;44.634;10.492;2022-12-18T17:16:06;7.90;;;5.78;;
60368;SDS011;46208;44.634;10.492;2022-12-18T17:19:10;7.15;;;3.55;;
60368;SDS011;46208;44.634;10.492;2022-12-18T17:22:14;3.72;;;3.10;;
60368;SDS011;46208;44.634;10.492;2022-12-18T17:25:17;7.40;;;4.25;;
60368;SDS011;46208;44.634;10.492;2022-12-18T17:28:22;8.15;;;3.15;;
60368;SDS011;46208;44.634;10.492;2022-12-18T17:31:26;3.45;;;3.03;;
60368;SDS011;46208;44.634;10.492;2022-12-18T17:34:30;10.65;;;3.38;;
60368;SDS011;46208;44.634;10.492;2022-12-18T17:37:33;3.35;;;2.00;;
60368;SDS011;46208;44.634;10.492;2022-12-18T17:40:37;3.10;;;1.92;;
60368;SDS011;46208;44.634;10.492;2022-12-18T17:43:40;2.75;;;1.95;;
60368;SDS011;46208;44.634;10.492;2022-12-18T17:46:50;5.88;;;2.70;;
60368;SDS011;46208;44.634;10.492;2022-12-18T17:49:53;6.05;;;3.05;;
60368;SDS011;46208;44.634;10.492;2022-12-18T17:52:57;4.40;;;3.30;;
60368;SDS011;46208;44.634;10.492;2022-12-18T17:56:00;4.78;;;2.55;;
60368;SDS011;46208;44.634;10.492;2022-12-18T17:59:05;2.80;;;2.60;;
60368;SDS011;46208;44.634;10.492;2022-12-18T18:02:10;3.70;;;3.40;;
60368;SDS011;46208;44.634;10.492;2022-12-18T18:05:13;4.85;;;3.83;;
60368;SDS011;46208;44.634;10.492;2022-12-18T18:08:17;3.38;;;3.08;;
60368;SDS011;46208;44.634;10.492;2022-12-18T18:11:21;2.95;;;2.35;;
60368;SDS011;46208;44.634;10.492;2022-12-18T18:14:44;3.72;;;2.47;;
60368;SDS011;46208;44.634;10.492;2022-12-18T18:17:47;4.93;;;3.10;;
60368;SDS011;46208;44.634;10.492;2022-12-18T18:20:50;5.13;;;3.47;;
60368;SDS011;46208;44.634;10.492;2022-12-18T18:23:53;3.55;;;3.35;;
60368;SDS011;46208;44.634;10.492;2022-12-18T18:26:57;3.13;;;2.83;;
60368;SDS011;46208;44.634;10.492;2022-12-18T18:30:03;3.25;;;2.88;;
60368;SDS011;46208;44.634;10.492;2022-12-18T18:33:07;9.05;;;4.55;;
60368;SDS011;46208;44.634;10.492;2022-12-18T18:36:10;4.22;;;3.88;;
60368;SDS011;46208;44.634;10.492;2022-12-18T18:39:14;3.70;;;3.15;;
60368;SDS011;46208;44.634;10.492;2022-12-18T18:42:17;3.60;;;2.50;;
60368;SDS011;46208;44.634;10.492;2022-12-18T18:45:20;4.60;;;2.97;;
60368;SDS011;46208;44.634;10.492;2022-12-18T18:48:23;6.07;;;4.70;;
60368;SDS011;46208;44.634;10.492;2022-12-18T18:51:27;7.72;;;4.78;;
60368;SDS011;46208;44.634;10.492;2022-12-18T18:54:31;12.52;;;5.53;;
60368;SDS011;46208;44.634;10.492;2022-12-18T18:57:34;6.85;;;4.25;;
60368;SDS011;46208;44.634;10.492;2022-12-18T19:00:37;3.97;;;3.65;;
60368;SDS011;46208;44.634;10.492;2022-12-18T19:03:40;2.40;;;2.20;;
60368;SDS011;46208;44.634;10.492;2022-12-18T19:06:44;3.70;;;2.58;;
60368;SDS011;46208;44.634;10.492;2022-12-18T19:09:49;5.18;;;3.22;;
60368;SDS011;46208;44.634;10.492;2022-12-18T19:12:54;5.25;;;4.78;;
60368;SDS011;46208;44.634;10.492;2022-12-18T19:16:16;6.25;;;3.40;;
60368;SDS011;46208;44.634;10.492;2022-12-18T19:19:19;4.35;;;3.53;;
60368;SDS011;46208;44.634;10.492;2022-12-18T19:22:24;4.43;;;2.78;;
60368;SDS011;46208;44.634;10.492;2022-12-18T19:25:27;7.10;;;4.85;;
60368;SDS011;46208;44.634;10.492;2022-12-18T19:28:34;4.13;;;3.60;;
60368;SDS011;46208;44.634;10.492;2022-12-18T19:31:37;4.10;;;2.53;;
60368;SDS011;46208;44.634;10.492;2022-12-18T19:34:40;4.68;;;3.50;;
60368;SDS011;46208;44.634;10.492;2022-12-18T19:37:44;3.80;;;2.47;;
60368;SDS011;46208;44.634;10.492;2022-12-18T19:40:47;6.65;;;4.32;;
60368;SDS011;46208;44.634;10.492;2022-12-18T19:43:51;4.88;;;3.83;;
60368;SDS011;46208;44.634;10.492;2022-12-18T19:46:54;4.78;;;4.10;;
60368;SDS011;46208;44.634;10.492;2022-12-18T19:49:58;3.97;;;3.15;;
60368;SDS011;46208;44.634;10.492;2022-12-18T19:53:01;5.57;;;3.22;;
60368;SDS011;46208;44.634;10.492;2022-12-18T19:56:08;5.15;;;3.97;;
60368;SDS011;46208;44.634;10.492;2022-12-18T19:59:12;3.13;;;2.83;;
60368;SDS011;46208;44.634;10.492;2022-12-18T20:02:15;6.90;;;2.30;;